Time;durP1;ratioP1;P1;durP2;ratioP2;P2;SDS_P1;SDS_P2;PMS_P1;PMS_P2;Temp;Humidity;BMP_temperature;BMP_pressure;BME280_temperature;BME280_humidity;BME280_pressure;Samples;Min_cycle;Max_cycle;Signal;HPM_P1;HPM_P2
2022/02/13 00:00:43;;;;;;;;;24.50;19.50;;;;;21.94;39.20;101193.00;5043766;28;45537;-79
2022/02/13 00:03:08;;;;;;;;;18.75;17.75;;;;;21.92;39.41;101194.84;5060138;28;46287;-80
2022/02/13 00:05:34;;;;;;;;;24.00;20.50;;;;;21.93;39.20;101197.44;5042764;28;62987;-79
2022/02/13 00:08:00;;;;;;;;;24.75;19.75;;;;;21.93;38.93;101188.59;5060488;28;45731;-79
2022/02/13 00:10:26;;;;;;;;;24.00;20.00;;;;;21.93;39.31;101180.63;5044081;28;45277;-79
2022/02/13 00:12:51;;;;;;;;;20.25;17.00;;;;;21.92;39.34;101171.78;5059310;28;48141;-79
2022/02/13 00:15:16;;;;;;;;;19.75;19.00;;;;;21.92;39.07;101166.47;5026269;28;57111;-79
2022/02/13 00:17:42;;;;;;;;;19.75;18.25;;;;;21.92;39.10;101165.59;5026506;28;45319;-79
2022/02/13 00:20:08;;;;;;;;;19.50;18.75;;;;;21.90;39.33;101155.03;5060228;28;45423;-78
2022/02/13 00:22:33;;;;;;;;;20.50;20.25;;;;;21.90;39.01;101144.38;5043452;28;45420;-78
2022/02/13 00:24:59;;;;;;;;;22.50;20.25;;;;;21.91;39.10;101146.13;5043453;28;45439;-78
2022/02/13 00:27:24;;;;;;;;;15.75;15.75;;;;;21.90;39.25;101139.06;5043595;28;45303;-78
2022/02/13 00:29:50;;;;;;;;;17.75;16.50;;;;;21.89;39.36;101147.97;5059911;28;45443;-79
2022/02/13 00:32:15;;;;;;;;;19.25;17.00;;;;;21.90;39.07;101146.19;5025884;28;47004;-78
2022/02/13 00:34:41;;;;;;;;;17.50;16.75;;;;;21.90;39.26;101139.06;5058844;28;64737;-78
2022/02/13 00:37:06;;;;;;;;;22.25;18.00;;;;;21.90;38.68;101130.22;5059950;28;45332;-78
2022/02/13 00:39:32;;;;;;;;;16.50;15.25;;;;;21.90;39.01;101128.44;5042491;28;45450;-78
2022/02/13 00:41:57;;;;;;;;;25.00;18.25;;;;;21.91;39.16;101122.22;5042703;28;48319;-78
2022/02/13 00:44:23;;;;;;;;;19.00;17.25;;;;;21.91;39.26;101113.38;5042062;28;58538;-78
2022/02/13 00:46:48;;;;;;;;;20.25;19.00;;;;;21.88;38.88;101109.00;5058758;28;59825;-78
2022/02/13 00:49:14;;;;;;;;;18.25;16.00;;;;;21.90;38.97;101109.84;5025837;28;45684;-79
2022/02/13 00:51:39;;;;;;;;;19.50;18.00;;;;;21.92;39.07;101104.47;5059319;28;45955;-79
2022/02/13 00:54:04;;;;;;;;;18.00;16.75;;;;;21.91;38.93;101095.63;5042626;28;45331;-79
2022/02/13 00:56:30;;;;;;;;;15.00;15.00;;;;;21.91;39.06;101089.44;5042625;28;45332;-79
2022/02/13 00:58:55;;;;;;;;;19.25;17.25;;;;;21.90;38.81;101091.25;5042168;28;51733;-78
2022/02/13 01:01:21;;;;;;;;;22.00;19.00;;;;;21.90;38.75;101096.56;5041968;28;50528;-79
2022/02/13 01:03:46;;;;;;;;;19.25;17.50;;;;;21.90;38.97;101085.94;5042058;28;50777;-79
2022/02/13 01:06:12;;;;;;;;;21.50;21.25;;;;;21.90;39.03;101087.72;5025590;28;47451;-79
2022/02/13 01:08:38;;;;;;;;;19.75;17.25;;;;;21.91;39.06;101086.78;5042386;28;45599;-78
2022/02/13 01:11:03;;;;;;;;;18.50;16.75;;;;;21.88;39.01;101077.09;5058885;28;46226;-78
2022/02/13 01:13:29;;;;;;;;;20.00;15.75;;;;;21.90;39.13;101080.63;5075800;28;45346;-79
2022/02/13 01:15:54;;;;;;;;;18.00;16.00;;;;;21.89;38.73;101075.31;5042421;28;45331;-79
2022/02/13 01:18:20;;;;;;;;;19.00;16.75;;;;;21.88;38.86;101077.09;5042060;28;45402;-79
2022/02/13 01:20:45;;;;;;;;;16.00;14.50;;;;;21.90;38.98;101077.09;5041918;28;52810;-78
2022/02/13 01:23:10;;;;;;;;;19.50;16.75;;;;;21.89;38.76;101075.31;5025259;28;57887;-79
2022/02/13 01:25:36;;;;;;;;;17.50;16.00;;;;;21.87;38.69;101080.69;5025864;28;45540;-79
2022/02/13 01:28:03;;;;;;;;;14.00;12.25;;;;;21.88;39.29;101065.59;5044987;28;46055;-79
2022/02/13 01:30:28;;;;;;;;;18.25;17.25;;;;;21.88;38.90;101069.13;5029718;28;48245;-79
2022/02/13 01:32:53;;;;;;;;;16.50;14.25;;;;;21.88;38.73;101060.28;5045958;28;45358;-79
2022/02/13 01:35:19;;;;;;;;;14.25;13.75;;;;;21.88;38.62;101054.97;5045591;28;55325;-79
2022/02/13 01:37:44;;;;;;;;;22.25;19.75;;;;;21.88;39.04;101047.88;5028005;28;65604;-79
2022/02/13 01:40:10;;;;;;;;;22.75;19.00;;;;;21.88;38.95;101050.53;5041221;28;64871;-79
2022/02/13 01:42:36;;;;;;;;;18.50;17.25;;;;;21.88;38.62;101050.53;5041951;28;45382;-79
2022/02/13 01:45:01;;;;;;;;;20.50;18.50;;;;;21.88;38.76;101053.19;5042137;28;45446;-79
2022/02/13 01:47:29;;;;;;;;;21.50;15.50;;;;;21.89;38.79;101059.38;5041322;28;45588;-79
2022/02/13 01:49:57;;;;;;;;;22.75;18.25;;;;;21.88;38.96;101055.84;5041794;28;47294;-79
2022/02/13 01:52:23;;;;;;;;;16.25;15.75;;;;;21.88;38.62;101053.19;5041925;28;45338;-78
2022/02/13 01:54:49;;;;;;;;;19.50;17.25;;;;;21.88;38.79;101050.53;5041685;28;45735;-79
2022/02/13 01:57:14;;;;;;;;;18.00;17.75;;;;;21.88;39.02;101063.81;5057628;28;59729;-79
2022/02/13 01:59:40;;;;;;;;;17.50;17.25;;;;;21.89;38.90;101059.38;5059667;28;48787;-79
2022/02/13 02:02:05;;;;;;;;;16.75;12.00;;;;;21.88;38.62;101055.84;5041264;28;45640;-79
2022/02/13 02:04:31;;;;;;;;;15.00;13.75;;;;;21.88;38.68;101055.84;5058676;28;45452;-79
2022/02/13 02:06:56;;;;;;;;;16.75;16.75;;;;;21.87;38.87;101053.25;5040471;28;67897;-79
2022/02/13 02:09:25;;;;;;;;;21.25;20.25;;;;;21.87;38.24;101038.16;5041473;28;45440;-79
2022/02/13 02:11:51;;;;;;;;;18.25;17.00;;;;;21.86;38.79;101039.09;5041379;28;45266;-79
2022/02/13 02:14:16;;;;;;;;;16.25;15.75;;;;;21.87;38.46;101032.84;5059683;28;45306;-79
2022/02/13 02:16:42;;;;;;;;;21.50;19.75;;;;;21.84;38.45;101027.66;5041005;28;45635;-79
2022/02/13 02:19:10;;;;;;;;;18.50;15.75;;;;;21.85;38.28;101020.56;5058007;28;48186;-79
2022/02/13 02:21:36;;;;;;;;;17.25;16.25;;;;;21.85;38.81;101026.72;5039561;28;45979;-79
2022/02/13 02:24:02;;;;;;;;;18.25;16.25;;;;;21.84;38.71;101019.69;5041449;28;45346;-79
2022/02/13 02:26:28;;;;;;;;;19.50;16.75;;;;;21.83;38.75;101009.97;5040927;28;45386;-79
2022/02/13 02:28:53;;;;;;;;;21.50;19.50;;;;;21.85;38.43;101007.25;5041211;28;45426;-79
2022/02/13 02:31:19;;;;;;;;;18.50;16.75;;;;;21.84;38.69;101006.41;5040989;28;45393;-79
2022/02/13 02:33:45;;;;;;;;;15.75;15.75;;;;;21.84;38.77;100997.56;5041472;28;45363;-79
2022/02/13 02:36:15;;;;;;;;;16.00;13.50;;;;;21.84;38.55;100978.97;5027328;28;45306;-79
2022/02/13 02:38:40;;;;;;;;;16.00;15.25;;;;;21.83;38.61;100966.59;5061667;28;46457;-79
2022/02/13 02:41:06;;;;;;;;;20.50;18.00;;;;;21.83;38.67;100967.47;5044431;28;45473;-79
2022/02/13 02:43:31;;;;;;;;;21.00;19.75;;;;;21.85;38.81;100964.75;5044661;28;45274;-79
2022/02/13 02:45:57;;;;;;;;;16.50;14.50;;;;;21.85;38.67;100970.94;5043611;28;59889;-79
2022/02/13 02:48:22;;;;;;;;;16.25;14.25;;;;;21.85;38.73;100962.09;5061332;28;45424;-79
2022/02/13 02:50:47;;;;;;;;;21.75;17.25;;;;;21.84;38.82;100961.22;5044564;28;45470;-79
2022/02/13 02:53:13;;;;;;;;;14.50;11.75;;;;;21.85;38.42;100960.31;5044497;28;45381;-79
2022/02/13 02:55:40;;;;;;;;;17.25;17.00;;;;;21.85;38.47;100962.97;5044020;28;52061;-79
2022/02/13 02:58:05;;;;;;;;;18.00;18.00;;;;;21.85;38.73;100949.66;5044712;28;46126;-79
2022/02/13 03:00:31;;;;;;;;;18.00;17.50;;;;;21.85;38.82;100960.31;5043566;28;59910;-80
2022/02/13 03:02:56;;;;;;;;;16.50;15.25;;;;;21.86;38.74;100956.72;5060389;28;55831;-79
2022/02/13 03:05:21;;;;;;;;;16.75;16.75;;;;;21.85;38.26;100956.78;5061077;28;45231;-79
2022/02/13 03:07:47;;;;;;;;;22.00;16.75;;;;;21.84;38.49;100955.91;5043970;28;54380;-79
2022/02/13 03:10:12;;;;;;;;;18.25;16.25;;;;;21.83;38.77;100948.88;5043841;28;46039;-79
2022/02/13 03:12:38;;;;;;;;;17.00;15.25;;;;;21.85;38.71;100952.31;5077824;28;45385;-79
2022/02/13 03:15:05;;;;;;;;;17.00;16.75;;;;;21.84;38.45;100947.06;5043706;28;54214;-79
2022/02/13 03:17:30;;;;;;;;;16.25;15.50;;;;;21.84;38.58;100947.06;5027702;28;47160;-79
2022/02/13 03:19:56;;;;;;;;;19.25;16.00;;;;;21.84;38.53;100949.72;5060602;28;45397;-79
2022/02/13 03:22:21;;;;;;;;;20.00;17.50;;;;;21.83;38.74;100932.91;5044294;28;45395;-80
2022/02/13 03:24:46;;;;;;;;;19.50;16.75;;;;;21.83;38.40;100935.56;5059901;28;57760;-79
2022/02/13 03:27:12;;;;;;;;;14.50;14.50;;;;;21.82;38.57;100927.66;5043904;28;45891;-79
2022/02/13 03:29:37;;;;;;;;;22.25;16.25;;;;;21.82;38.90;100917.91;5060289;28;55724;-79
2022/02/13 03:32:03;;;;;;;;;18.00;16.25;;;;;21.83;38.48;100910.81;5043721;28;45409;-79
2022/02/13 03:34:28;;;;;;;;;16.50;14.00;;;;;21.81;38.84;100908.19;5043313;28;45657;-79
2022/02/13 03:36:54;;;;;;;;;19.50;17.75;;;;;21.81;38.62;100902.88;5043032;28;62245;-79
2022/02/13 03:39:20;;;;;;;;;18.00;18.00;;;;;21.81;38.57;100900.22;5043047;28;56478;-79
2022/02/13 03:41:46;;;;;;;;;16.50;15.00;;;;;21.81;38.06;100899.38;5027479;28;45264;-79
2022/02/13 03:44:11;;;;;;;;;15.25;14.50;;;;;21.81;38.57;100904.69;5060304;28;45540;-79
2022/02/13 03:46:37;;;;;;;;;19.50;17.25;;;;;21.82;38.42;100895.78;5042099;28;47203;-79
2022/02/13 03:49:03;;;;;;;;;19.00;16.50;;;;;21.80;38.38;100901.13;5043034;28;57267;-79
2022/02/13 03:51:28;;;;;;;;;17.00;16.25;;;;;21.82;38.79;100896.66;5043916;28;45395;-79
2022/02/13 03:53:54;;;;;;;;;16.25;12.00;;;;;21.83;38.78;100886.88;5042988;28;52770;-79
2022/02/13 03:56:19;;;;;;;;;16.25;16.25;;;;;21.82;38.62;100883.38;5043322;28;45506;-79
2022/02/13 03:58:45;;;;;;;;;12.75;12.50;;;;;21.81;38.29;100886.06;5026665;28;45790;-79
2022/02/13 04:01:10;;;;;;;;;16.50;13.25;;;;;21.83;38.86;100889.53;5060314;28;45554;-79
2022/02/13 04:03:35;;;;;;;;;15.00;15.00;;;;;21.83;38.73;100884.22;5043230;28;45406;-79
2022/02/13 04:06:03;;;;;;;;;15.50;14.75;;;;;21.82;38.86;100886.03;5043347;28;45581;-79
2022/02/13 04:08:28;;;;;;;;;15.75;14.75;;;;;21.83;38.57;100894.84;5043567;28;45414;-79
2022/02/13 04:10:53;;;;;;;;;16.25;14.25;;;;;21.82;38.82;100880.72;5039531;28;50628;-80
2022/02/13 04:13:19;;;;;;;;;14.25;13.25;;;;;21.82;38.69;100883.38;5053481;28;45335;-79
2022/02/13 04:15:44;;;;;;;;;14.50;13.00;;;;;21.82;38.15;100883.38;5042902;28;55766;-79
2022/02/13 04:18:14;;;;;;;;;12.50;10.50;;;;;21.82;38.59;100885.16;5042803;28;45344;-79
2022/02/13 04:20:39;;;;;;;;;20.50;16.00;;;;;21.81;38.62;100878.97;5044016;28;45245;-79
2022/02/13 04:23:05;;;;;;;;;14.25;14.25;;;;;21.81;38.50;100868.34;5026311;28;45520;-79
2022/02/13 04:25:30;;;;;;;;;14.75;13.25;;;;;21.81;38.34;100871.00;5059257;28;57915;-79
2022/02/13 04:27:56;;;;;;;;;16.00;12.25;;;;;21.81;38.26;100867.47;5059741;28;45362;-79
2022/02/13 04:30:22;;;;;;;;;13.50;13.00;;;;;21.80;38.20;100871.91;5042824;28;46505;-79
2022/02/13 04:32:48;;;;;;;;;14.50;13.25;;;;;21.81;38.36;100873.66;5042653;28;46048;-79
2022/02/13 04:35:13;;;;;;;;;14.25;14.25;;;;;21.79;38.44;100862.19;5059716;28;45405;-80
2022/02/13 04:37:39;;;;;;;;;17.00;13.00;;;;;21.80;38.25;100863.94;5042343;28;52014;-79
2022/02/13 04:40:05;;;;;;;;;15.00;12.00;;;;;21.80;38.41;100863.94;5042783;28;45323;-79
2022/02/13 04:42:30;;;;;;;;;13.25;11.00;;;;;21.78;38.49;100859.59;5042834;28;45254;-79
2022/02/13 04:44:56;;;;;;;;;14.75;14.00;;;;;21.79;38.78;100854.22;5042750;28;47927;-79
2022/02/13 04:47:21;;;;;;;;;14.50;12.25;;;;;21.80;38.42;100839.16;5042584;28;46139;-79
2022/02/13 04:49:46;;;;;;;;;16.50;14.50;;;;;21.79;38.58;100840.94;5025832;28;45167;-79
2022/02/13 04:52:12;;;;;;;;;12.50;12.50;;;;;21.78;38.49;100823.28;5059551;28;45211;-79
2022/02/13 04:54:37;;;;;;;;;13.25;12.00;;;;;21.79;38.15;100838.28;5042179;28;48492;-79
2022/02/13 04:57:03;;;;;;;;;13.00;11.25;;;;;21.79;38.34;100819.69;5059276;28;45258;-79
2022/02/13 04:59:33;;;;;;;;;12.75;12.75;;;;;21.78;38.66;100817.94;5042321;28;45307;-79
2022/02/13 05:01:59;;;;;;;;;13.50;11.25;;;;;21.77;38.30;100818.88;5026741;28;45780;-80
2022/02/13 05:04:24;;;;;;;;;11.50;10.75;;;;;21.78;38.50;100815.28;5042644;28;45549;-80
2022/02/13 05:06:50;;;;;;;;;14.75;12.00;;;;;21.79;38.28;100808.19;5042247;28;45376;-80
2022/02/13 05:09:15;;;;;;;;;10.25;10.25;;;;;21.80;38.52;100812.59;5059249;28;45296;-79
2022/02/13 05:11:43;;;;;;;;;13.00;10.00;;;;;21.78;38.21;100814.44;5059188;28;45244;-79
2022/02/13 05:14:09;;;;;;;;;11.00;10.25;;;;;21.77;38.22;100810.03;5059085;28;45476;-78
2022/02/13 05:16:34;;;;;;;;;10.00;7.75;;;;;21.79;38.37;100800.22;5041972;28;45311;-78
2022/02/13 05:18:59;;;;;;;;;12.75;10.50;;;;;21.78;38.43;100801.16;5059958;28;49400;-78
2022/02/13 05:21:25;;;;;;;;;12.25;11.00;;;;;21.76;38.59;100806.53;5041715;28;54624;-78
2022/02/13 05:23:50;;;;;;;;;15.00;11.00;;;;;21.77;38.51;100792.31;5025420;28;47314;-77
2022/02/13 05:26:16;;;;;;;;;13.75;11.50;;;;;21.77;38.28;100792.31;5058101;28;60818;-78
2022/02/13 05:28:41;;;;;;;;;10.25;9.50;;;;;21.78;38.41;100787.88;5058879;28;45852;-78
2022/02/13 05:31:07;;;;;;;;;9.50;8.50;;;;;21.77;38.36;100784.34;5042019;28;45994;-78
2022/02/13 05:33:32;;;;;;;;;12.00;10.50;;;;;21.77;38.28;100776.38;5058610;28;45825;-78
2022/02/13 05:35:57;;;;;;;;;9.75;8.00;;;;;21.77;38.38;100772.84;5058618;28;45481;-78
2022/02/13 05:38:23;;;;;;;;;13.75;10.50;;;;;21.76;38.44;100772.00;5058206;28;55585;-78
2022/02/13 05:40:48;;;;;;;;;13.50;12.75;;;;;21.76;38.57;100769.34;5041968;28;45446;-76
2022/02/13 05:43:14;;;;;;;;;11.25;10.00;;;;;21.77;38.28;100770.19;5058218;28;54788;-77
2022/02/13 05:45:40;;;;;;;;;8.75;8.75;;;;;21.76;38.65;100763.16;5042096;28;45431;-77
2022/02/13 05:48:05;;;;;;;;;11.25;10.00;;;;;21.75;38.44;100762.28;5025077;28;45336;-77
2022/02/13 05:50:30;;;;;;;;;10.50;9.25;;;;;21.76;38.57;100772.00;5041912;28;45277;-77
2022/02/13 05:52:56;;;;;;;;;11.25;11.25;;;;;21.77;38.96;100763.09;5058032;28;48136;-77
2022/02/13 05:55:21;;;;;;;;;11.50;9.00;;;;;21.76;38.74;100758.69;5025094;28;45345;-77
2022/02/13 05:57:47;;;;;;;;;11.50;11.25;;;;;21.76;38.52;100756.03;5040956;28;62026;-77
2022/02/13 06:00:13;;;;;;;;;12.25;11.00;;;;;21.78;38.89;100754.19;5041059;28;57946;-75
2022/02/13 06:02:41;;;;;;;;;8.75;8.75;;;;;21.77;39.02;100752.47;5041036;28;48159;-79
2022/02/13 06:05:07;;;;;;;;;10.75;8.75;;;;;21.76;39.22;100750.72;5044118;28;45372;-76
2022/02/13 06:07:39;;;;;;;;;11.50;11.50;;;;;21.78;39.47;100762.16;5024866;28;45281;-72
2022/02/13 06:10:09;;;;;;;;;12.00;8.50;;;;;21.77;40.08;100755.13;5040424;28;45480;-78
2022/02/13 06:12:34;;;;;;;;;10.25;9.00;;;;;21.80;39.93;100755.00;5074485;28;47412;-78
2022/02/13 06:15:00;;;;;;;;;12.25;7.75;;;;;21.88;39.60;100752.06;5041529;28;45335;-82
2022/02/13 06:17:25;;;;;;;;;14.00;11.00;;;;;22.06;39.71;100747.84;5041491;28;45266;-77
2022/02/13 06:19:51;;;;;;;;;13.00;13.00;;;;;22.27;39.67;100744.41;5059457;28;45270;-74
2022/02/13 06:22:16;;;;;;;;;12.75;12.75;;;;;22.41;39.22;100734.06;5057605;28;63803;-79
2022/02/13 06:24:41;;;;;;;;;19.75;19.75;;;;;22.55;39.46;100738.84;5040846;28;54297;-80
2022/02/13 06:27:07;;;;;;;;;18.50;17.75;;;;;22.70;38.94;100740.03;5041301;28;45512;-79
2022/02/13 06:29:32;;;;;;;;;21.00;17.50;;;;;22.80;39.17;100738.72;5024592;28;45579;-84
2022/02/13 06:31:59;;;;;;;;;17.50;16.25;;;;;22.87;39.17;100747.34;5024243;28;46110;-76
2022/02/13 06:34:25;;;;;;;;;19.00;17.00;;;;;22.87;39.06;100742.91;5041472;28;45269;-80
2022/02/13 06:36:50;;;;;;;;;16.75;13.50;;;;;22.88;39.47;100746.41;5041112;28;45216;-76
2022/02/13 06:39:15;;;;;;;;;16.75;15.00;;;;;22.88;39.50;100746.41;5057799;28;45631;-74
2022/02/13 06:41:41;;;;;;;;;16.50;13.25;;;;;22.83;39.54;100746.56;5059069;28;45421;-78
2022/02/13 06:44:06;;;;;;;;;16.75;13.00;;;;;22.78;39.41;100738.78;5024261;28;48186;-72
2022/02/13 06:46:32;;;;;;;;;17.50;14.25;;;;;22.73;39.65;100732.78;5058786;28;46997;-73
2022/02/13 06:48:57;;;;;;;;;15.50;12.75;;;;;22.67;40.10;100726.84;5057126;28;63176;-73
2022/02/13 06:51:23;;;;;;;;;15.00;13.00;;;;;22.61;39.99;100727.97;5057513;28;47512;-73
2022/02/13 06:53:48;;;;;;;;;14.25;13.00;;;;;22.56;39.89;100717.50;5057859;28;45449;-73
2022/02/13 06:56:13;;;;;;;;;14.50;13.25;;;;;22.51;39.49;100705.34;5059024;28;45315;-73
2022/02/13 06:58:40;;;;;;;;;14.75;12.50;;;;;22.48;39.43;100700.13;5059200;28;45404;-73
2022/02/13 07:01:05;;;;;;;;;12.75;11.75;;;;;22.43;39.39;100687.03;5057269;28;46804;-74
2022/02/13 07:03:31;;;;;;;;;13.00;13.00;;;;;22.41;39.77;100691.53;5057766;28;45973;-73
2022/02/13 07:05:57;;;;;;;;;15.25;13.00;;;;;22.37;39.19;100691.72;5040941;28;45304;-73
2022/02/13 07:08:22;;;;;;;;;14.50;12.50;;;;;22.35;39.77;100686.47;5041244;28;45524;-73
2022/02/13 07:10:48;;;;;;;;;12.50;12.00;;;;;22.33;39.62;100688.34;5057401;28;46296;-73
2022/02/13 07:13:13;;;;;;;;;12.75;11.50;;;;;22.31;39.25;100687.50;5087876;27;66287;-73
2022/02/13 07:15:39;;;;;;;;;13.00;11.25;;;;;22.29;39.39;100692.03;5075212;28;45484;-74
2022/02/13 07:18:04;;;;;;;;;14.75;11.50;;;;;22.24;39.08;100686.91;5043624;28;45201;-73
2022/02/13 07:20:29;;;;;;;;;12.50;10.75;;;;;22.24;39.21;100684.25;5059672;28;49115;-74
2022/02/13 07:22:56;;;;;;;;;14.50;12.00;;;;;22.23;39.08;100681.63;5028126;28;53273;-74
2022/02/13 07:25:22;;;;;;;;;11.50;11.50;;;;;22.22;39.32;100685.22;5028137;28;45387;-75
2022/02/13 07:27:48;;;;;;;;;13.75;11.50;;;;;22.19;39.06;100682.69;5061182;28;45450;-75
2022/02/13 07:30:13;;;;;;;;;11.50;11.50;;;;;22.20;39.09;100687.94;5060594;28;45976;-74
2022/02/13 07:32:42;;;;;;;;;12.00;10.00;;;;;22.19;39.07;100683.56;5060771;28;45330;-74
2022/02/13 07:35:08;;;;;;;;;11.25;11.00;;;;;22.17;39.42;100676.56;5060886;28;45461;-73
2022/02/13 07:37:34;;;;;;;;;13.50;11.50;;;;;22.15;39.05;100683.72;5060787;28;45236;-74
2022/02/13 07:40:00;;;;;;;;;12.75;10.75;;;;;22.15;39.10;100687.28;5061948;28;45362;-74
2022/02/13 07:42:25;;;;;;;;;13.75;11.75;;;;;22.15;39.39;100686.38;5062525;28;45271;-74
2022/02/13 07:44:59;;;;;;;;;14.75;12.50;;;;;22.14;39.24;100688.19;5062388;28;45491;-74
2022/02/13 07:47:25;;;;;;;;;13.00;11.00;;;;;22.14;40.08;100695.28;5043548;28;45340;-74
2022/02/13 07:49:51;;;;;;;;;13.00;12.00;;;;;22.13;39.81;100693.56;5043401;28;45745;-74
2022/02/13 07:52:16;;;;;;;;;14.75;11.50;;;;;22.13;40.28;100680.25;5026934;28;45352;-73
2022/02/13 07:54:41;;;;;;;;;10.00;9.25;;;;;22.11;40.28;100672.34;5060137;28;49100;-74
2022/02/13 07:57:07;;;;;;;;;10.25;10.25;;;;;22.13;39.92;100669.63;5060282;28;45478;-75
2022/02/13 07:59:32;;;;;;;;;15.75;11.00;;;;;22.11;39.94;100659.06;5061205;28;59637;-76
2022/02/13 08:02:00;;;;;;;;;12.75;10.00;;;;;22.12;40.61;100659.94;5059746;28;54142;-77
2022/02/13 08:04:25;;;;;;;;;12.00;10.25;;;;;22.11;40.49;100653.75;5044364;28;45294;-75
2022/02/13 08:06:51;;;;;;;;;10.25;10.00;;;;;22.11;40.22;100636.94;5061613;28;45325;-77
2022/02/13 08:09:16;;;;;;;;;14.25;11.75;;;;;22.12;40.17;100630.69;5060056;28;51951;-77
2022/02/13 08:11:42;;;;;;;;;13.25;11.00;;;;;22.11;40.25;100631.63;5061548;28;45256;-77
2022/02/13 08:14:07;;;;;;;;;14.75;11.50;;;;;22.11;40.25;100627.16;5061762;28;45138;-77
2022/02/13 08:16:33;;;;;;;;;12.25;10.00;;;;;22.11;40.23;100623.66;5061246;28;45226;-77
2022/02/13 08:18:58;;;;;;;;;11.75;10.75;;;;;22.07;40.16;100612.28;5060091;28;45413;-77
2022/02/13 08:21:23;;;;;;;;;15.00;11.50;;;;;22.05;40.01;100599.94;5043200;28;45294;-77
2022/02/13 08:23:49;;;;;;;;;13.00;13.00;;;;;22.05;39.81;100591.97;5061302;28;45680;-77
2022/02/13 08:26:16;;;;;;;;;12.50;11.75;;;;;22.04;40.02;100598.22;5061377;28;45212;-78
2022/02/13 08:28:41;;;;;;;;;14.25;11.00;;;;;22.06;39.59;100607.84;5061376;28;45310;-77
2022/02/13 08:31:07;;;;;;;;;14.50;11.00;;;;;22.05;39.76;100608.78;5042506;28;55636;-77
2022/02/13 08:33:32;;;;;;;;;9.00;9.00;;;;;22.05;39.56;100600.78;5042489;28;45448;-78
2022/02/13 08:35:58;;;;;;;;;11.25;11.00;;;;;22.04;40.04;100604.38;5043061;28;45292;-77
2022/02/13 08:38:24;;;;;;;;;11.00;9.25;;;;;22.04;39.81;100607.03;5043129;28;46218;-77
2022/02/13 08:40:49;;;;;;;;;11.00;9.00;;;;;22.04;39.74;100608.84;5043115;28;45417;-76
2022/02/13 08:43:15;;;;;;;;;12.50;10.00;;;;;22.01;39.52;100596.53;5026251;28;45360;-76
2022/02/13 08:45:40;;;;;;;;;10.50;10.50;;;;;22.05;39.59;100591.97;5059654;28;45576;-76
2022/02/13 08:48:06;;;;;;;;;11.75;10.50;;;;;22.04;39.52;100592.88;5061044;28;46100;-76
2022/02/13 08:50:31;;;;;;;;;10.75;8.00;;;;;22.05;39.27;100583.97;5059051;28;64134;-76
2022/02/13 08:52:57;;;;;;;;;9.25;8.25;;;;;22.04;39.52;100580.47;5059993;28;45393;-76
2022/02/13 08:55:22;;;;;;;;;10.00;7.00;;;;;22.05;39.96;100574.22;5059738;28;45383;-83
2022/02/13 08:57:48;;;;;;;;;8.75;7.75;;;;;22.07;40.57;100572.41;5043134;28;45250;-79
2022/02/13 09:00:14;;;;;;;;;10.50;9.25;;;;;22.08;40.28;100573.28;5043332;28;45276;-80
2022/02/13 09:02:40;;;;;;;;;12.00;9.25;;;;;22.13;40.47;100576.59;5042998;28;45268;-81
2022/02/13 09:05:07;;;;;;;;;9.00;8.50;;;;;22.14;40.28;100573.00;5043380;28;45586;-75
2022/02/13 09:07:36;;;;;;;;;11.00;9.75;;;;;22.16;40.60;100576.50;5026500;28;48404;-82
2022/02/13 09:10:11;;;;;;;;;11.00;9.00;;;;;22.18;40.61;100572.84;5043120;28;45249;-76
2022/02/13 09:12:36;;;;;;;;;10.50;8.75;;;;;22.20;40.79;100567.44;5065064;27;45298;-76
2022/02/13 09:15:02;;;;;;;;;7.75;7.75;;;;;22.22;40.58;100573.56;5093208;27;45349;-75
2022/02/13 09:17:28;;;;;;;;;10.50;10.25;;;;;22.24;40.75;100566.38;5059060;28;46511;-74
2022/02/13 09:19:55;;;;;;;;;12.25;10.50;;;;;22.23;40.55;100549.56;5060184;28;62455;-74
2022/02/13 09:22:21;;;;;;;;;12.50;10.25;;;;;22.24;40.36;100546.00;5060097;28;63480;-74
2022/02/13 09:24:46;;;;;;;;;14.50;12.75;;;;;22.24;40.22;100551.31;5059451;28;45378;-75
2022/02/13 09:27:12;;;;;;;;;9.75;9.00;;;;;22.27;39.63;100542.34;5039095;28;46007;-75
2022/02/13 09:29:37;;;;;;;;;11.75;9.00;;;;;22.27;39.89;100543.22;5086597;27;45870;-74
2022/02/13 09:32:03;;;;;;;;;12.50;10.25;;;;;22.27;39.56;100535.22;5060395;28;45288;-74
2022/02/13 09:34:33;;;;;;;;;11.00;10.00;;;;;22.31;39.50;100527.13;5042205;28;45439;-74
2022/02/13 09:36:59;;;;;;;;;10.75;6.25;;;;;22.32;39.63;100507.56;5058911;28;48108;-74
2022/02/13 09:39:24;;;;;;;;;10.25;8.25;;;;;22.32;39.38;100504.91;5042265;28;45271;-74
2022/02/13 09:41:50;;;;;;;;;11.50;10.00;;;;;22.33;39.07;100496.00;5025910;28;45253;-74
2022/02/13 09:44:17;;;;;;;;;10.00;9.50;;;;;22.33;38.82;100493.34;5024254;28;45280;-74
2022/02/13 09:46:43;;;;;;;;;11.00;10.00;;;;;22.34;38.98;100489.78;5042202;28;46014;-74
2022/02/13 09:49:09;;;;;;;;;10.75;9.25;;;;;22.35;39.04;100478.22;5022858;28;45501;-74
2022/02/13 09:51:34;;;;;;;;;10.50;9.50;;;;;22.35;38.61;100465.78;5059100;28;45516;-74
2022/02/13 09:54:01;;;;;;;;;10.50;8.25;;;;;22.37;38.64;100460.38;5060006;28;45873;-75
2022/02/13 09:56:26;;;;;;;;;8.75;8.75;;;;;22.36;38.96;100446.22;5042372;28;47949;-74
2022/02/13 09:58:52;;;;;;;;;10.00;9.00;;;;;22.35;38.69;100441.84;5058855;28;45347;-75
2022/02/13 10:01:18;;;;;;;;;10.00;10.00;;;;;22.38;38.83;100444.34;5058829;28;45607;-74
2022/02/13 10:03:44;;;;;;;;;12.00;10.00;;;;;22.37;38.80;100436.44;5041791;28;45248;-74
2022/02/13 10:06:20;;;;;;;;;12.25;9.50;;;;;22.36;38.29;100432.94;5041936;28;47393;-77
2022/02/13 10:08:53;;;;;;;;;12.50;10.00;;;;;22.35;38.02;100425.88;5059195;28;45454;-79
2022/02/13 10:11:33;;;;;;;;;13.25;10.75;;;;;22.34;38.85;100421.50;5042485;28;45189;-75
2022/02/13 10:13:59;;;;;;;;;9.50;8.00;;;;;22.35;39.22;100423.22;5058750;28;45404;-79
2022/02/13 10:16:26;;;;;;;;;10.50;9.25;;;;;22.36;39.08;100416.13;5042314;28;48305;-84
2022/02/13 10:18:52;;;;;;;;;9.75;9.75;;;;;22.37;39.19;100416.03;5048203;28;45208;-73
2022/02/13 10:21:39;;;;;;;;;9.75;9.75;;;;;22.41;39.66;100406.13;5058574;28;45327;-81
2022/02/13 10:24:15;;;;;;;;;8.00;7.25;;;;;22.45;40.07;100402.41;5059950;28;45518;-73
2022/02/13 10:26:41;;;;;;;;;10.50;9.75;;;;;22.47;40.01;100387.25;5058118;28;45244;-74
2022/02/13 10:29:08;;;;;;;;;10.00;9.75;;;;;22.49;40.30;100383.56;5041692;28;45374;-75
2022/02/13 10:31:38;;;;;;;;;9.50;9.50;;;;;22.51;40.35;100392.38;5025009;28;45427;-86
2022/02/13 10:34:03;;;;;;;;;10.75;9.00;;;;;22.54;40.60;100396.66;5042241;28;45455;-81
2022/02/13 10:36:29;;;;;;;;;9.25;8.50;;;;;22.56;40.88;100394.78;5041225;28;48443;-80
2022/02/13 10:38:54;;;;;;;;;8.75;8.00;;;;;22.55;40.80;100393.06;5058037;28;45304;-79
2022/02/13 10:41:27;;;;;;;;;12.75;9.25;;;;;22.55;41.23;100388.63;5041123;28;45347;-78
2022/02/13 10:43:56;;;;;;;;;12.00;7.50;;;;;22.55;41.53;100383.28;5041337;28;45352;-78
2022/02/13 10:46:23;;;;;;;;;9.75;9.75;;;;;22.54;41.83;100384.22;5057466;28;45571;-78
2022/02/13 10:48:48;;;;;;;;;13.00;11.75;;;;;22.53;42.76;100381.66;5040852;28;45299;-78
2022/02/13 10:51:14;;;;;;;;;12.25;11.75;;;;;22.54;42.58;100370.06;5024368;28;45495;-76
2022/02/13 10:53:40;;;;;;;;;18.25;15.00;;;;;22.54;43.43;100375.38;5057747;28;45375;-78
2022/02/13 10:56:06;;;;;;;;;12.75;12.75;;;;;22.52;43.83;100367.50;5058820;28;45276;-78
2022/02/13 10:58:31;;;;;;;;;30.50;30.25;;;;;22.57;44.17;100362.81;5044693;28;45367;-75
2022/02/13 11:00:58;;;;;;;;;39.50;35.50;;;;;22.64;44.91;100346.56;5062513;28;45379;-78
2022/02/13 11:03:24;;;;;;;;;25.25;25.00;;;;;22.74;44.55;100345.19;5028176;28;45291;-77
2022/02/13 11:05:49;;;;;;;;;83.00;71.25;;;;;22.78;45.89;100339.66;5044403;28;46941;-80